sensor_id;sensor_type;location;lat;lon;timestamp;P1;durP1;ratioP1;P2;durP2;ratioP2
47772;SDS011;33534;51.028;13.716;2023-04-03T00:00:56;5.65;;;1.88;;
47772;SDS011;33534;51.028;13.716;2023-04-03T00:03:22;5.95;;;2.10;;
47772;SDS011;33534;51.028;13.716;2023-04-03T00:05:49;5.15;;;2.00;;
47772;SDS011;33534;51.028;13.716;2023-04-03T00:08:15;5.53;;;1.50;;
47772;SDS011;33534;51.028;13.716;2023-04-03T00:10:41;5.43;;;1.92;;
47772;SDS011;33534;51.028;13.716;2023-04-03T00:13:07;6.38;;;1.73;;
47772;SDS011;33534;51.028;13.716;2023-04-03T00:15:33;6.72;;;2.50;;
47772;SDS011;33534;51.028;13.716;2023-04-03T00:18:00;3.17;;;1.90;;
47772;SDS011;33534;51.028;13.716;2023-04-03T00:20:26;5.78;;;1.77;;
47772;SDS011;33534;51.028;13.716;2023-04-03T00:22:52;5.22;;;2.10;;
47772;SDS011;33534;51.028;13.716;2023-04-03T00:25:18;4.60;;;1.50;;
47772;SDS011;33534;51.028;13.716;2023-04-03T00:27:45;5.88;;;1.98;;
47772;SDS011;33534;51.028;13.716;2023-04-03T00:30:12;3.63;;;1.40;;
47772;SDS011;33534;51.028;13.716;2023-04-03T00:32:39;4.50;;;2.15;;
47772;SDS011;33534;51.028;13.716;2023-04-03T00:35:05;7.20;;;1.60;;
47772;SDS011;33534;51.028;13.716;2023-04-03T00:37:32;5.80;;;1.70;;
47772;SDS011;33534;51.028;13.716;2023-04-03T00:39:58;5.40;;;1.85;;
47772;SDS011;33534;51.028;13.716;2023-04-03T00:42:24;7.05;;;2.25;;
47772;SDS011;33534;51.028;13.716;2023-04-03T00:47:22;4.55;;;2.08;;
47772;SDS011;33534;51.028;13.716;2023-04-03T00:49:49;9.13;;;2.67;;
47772;SDS011;33534;51.028;13.716;2023-04-03T00:52:16;5.78;;;2.10;;
47772;SDS011;33534;51.028;13.716;2023-04-03T00:54:43;6.38;;;2.08;;
47772;SDS011;33534;51.028;13.716;2023-04-03T00:57:11;4.63;;;1.70;;
47772;SDS011;33534;51.028;13.716;2023-04-03T00:59:47;6.18;;;2.17;;
47772;SDS011;33534;51.028;13.716;2023-04-03T01:02:14;6.60;;;2.67;;
47772;SDS011;33534;51.028;13.716;2023-04-03T01:04:42;3.13;;;1.60;;
47772;SDS011;33534;51.028;13.716;2023-04-03T01:09:40;6.63;;;2.10;;
47772;SDS011;33534;51.028;13.716;2023-04-03T01:14:49;5.82;;;1.83;;
47772;SDS011;33534;51.028;13.716;2023-04-03T01:20:02;6.07;;;2.08;;
47772;SDS011;33534;51.028;13.716;2023-04-03T01:22:33;6.30;;;2.22;;
47772;SDS011;33534;51.028;13.716;2023-04-03T01:25:04;5.68;;;1.70;;
47772;SDS011;33534;51.028;13.716;2023-04-03T01:27:31;9.95;;;2.55;;
47772;SDS011;33534;51.028;13.716;2023-04-03T01:29:57;4.97;;;1.75;;
47772;SDS011;33534;51.028;13.716;2023-04-03T01:32:23;5.30;;;1.90;;
47772;SDS011;33534;51.028;13.716;2023-04-03T01:34:49;3.80;;;1.75;;
47772;SDS011;33534;51.028;13.716;2023-04-03T01:37:15;6.20;;;2.00;;
47772;SDS011;33534;51.028;13.716;2023-04-03T01:39:41;5.82;;;1.83;;
47772;SDS011;33534;51.028;13.716;2023-04-03T01:42:07;3.78;;;1.80;;
47772;SDS011;33534;51.028;13.716;2023-04-03T01:44:33;6.40;;;2.30;;
47772;SDS011;33534;51.028;13.716;2023-04-03T01:46:59;4.18;;;1.77;;
47772;SDS011;33534;51.028;13.716;2023-04-03T01:49:25;5.20;;;1.92;;
47772;SDS011;33534;51.028;13.716;2023-04-03T01:51:51;5.18;;;1.73;;
47772;SDS011;33534;51.028;13.716;2023-04-03T01:54:17;7.90;;;1.90;;
47772;SDS011;33534;51.028;13.716;2023-04-03T01:56:43;8.52;;;1.80;;
47772;SDS011;33534;51.028;13.716;2023-04-03T01:59:09;4.95;;;1.80;;
47772;SDS011;33534;51.028;13.716;2023-04-03T02:01:35;5.63;;;2.10;;
47772;SDS011;33534;51.028;13.716;2023-04-03T02:04:01;4.43;;;2.20;;
47772;SDS011;33534;51.028;13.716;2023-04-03T02:06:27;7.95;;;1.90;;
47772;SDS011;33534;51.028;13.716;2023-04-03T02:08:53;6.63;;;2.08;;
47772;SDS011;33534;51.028;13.716;2023-04-03T02:11:19;9.90;;;2.58;;
47772;SDS011;33534;51.028;13.716;2023-04-03T02:13:45;3.90;;;1.98;;
47772;SDS011;33534;51.028;13.716;2023-04-03T02:16:11;8.02;;;1.67;;
47772;SDS011;33534;51.028;13.716;2023-04-03T02:18:38;5.25;;;1.67;;
47772;SDS011;33534;51.028;13.716;2023-04-03T02:21:04;7.18;;;1.55;;
47772;SDS011;33534;51.028;13.716;2023-04-03T02:23:30;6.28;;;2.10;;
47772;SDS011;33534;51.028;13.716;2023-04-03T02:26:09;6.93;;;2.03;;
47772;SDS011;33534;51.028;13.716;2023-04-03T02:28:36;4.97;;;2.15;;
47772;SDS011;33534;51.028;13.716;2023-04-03T02:31:02;6.68;;;2.17;;
47772;SDS011;33534;51.028;13.716;2023-04-03T02:33:29;6.65;;;1.80;;
47772;SDS011;33534;51.028;13.716;2023-04-03T02:35:55;6.15;;;2.35;;
47772;SDS011;33534;51.028;13.716;2023-04-03T02:38:22;5.65;;;1.80;;
47772;SDS011;33534;51.028;13.716;2023-04-03T02:40:48;3.80;;;1.98;;
47772;SDS011;33534;51.028;13.716;2023-04-03T02:43:14;5.40;;;2.17;;
47772;SDS011;33534;51.028;13.716;2023-04-03T02:45:40;8.75;;;2.05;;
47772;SDS011;33534;51.028;13.716;2023-04-03T02:48:06;9.30;;;2.47;;
47772;SDS011;33534;51.028;13.716;2023-04-03T02:50:33;4.57;;;1.75;;
47772;SDS011;33534;51.028;13.716;2023-04-03T02:52:59;5.78;;;1.92;;
47772;SDS011;33534;51.028;13.716;2023-04-03T02:55:25;11.07;;;2.35;;
47772;SDS011;33534;51.028;13.716;2023-04-03T02:57:51;6.05;;;2.10;;
47772;SDS011;33534;51.028;13.716;2023-04-03T03:00:17;5.78;;;1.83;;
47772;SDS011;33534;51.028;13.716;2023-04-03T03:02:43;4.97;;;1.80;;
47772;SDS011;33534;51.028;13.716;2023-04-03T03:05:09;6.95;;;2.08;;
47772;SDS011;33534;51.028;13.716;2023-04-03T03:07:35;6.25;;;2.35;;
47772;SDS011;33534;51.028;13.716;2023-04-03T03:10:01;8.07;;;2.15;;
47772;SDS011;33534;51.028;13.716;2023-04-03T03:12:27;6.50;;;2.22;;
47772;SDS011;33534;51.028;13.716;2023-04-03T03:14:53;5.25;;;1.73;;
47772;SDS011;33534;51.028;13.716;2023-04-03T03:17:19;4.85;;;1.50;;
47772;SDS011;33534;51.028;13.716;2023-04-03T03:19:45;6.32;;;1.85;;
47772;SDS011;33534;51.028;13.716;2023-04-03T03:22:11;9.93;;;2.03;;
47772;SDS011;33534;51.028;13.716;2023-04-03T03:24:37;6.45;;;1.77;;
47772;SDS011;33534;51.028;13.716;2023-04-03T03:27:03;13.25;;;2.65;;
47772;SDS011;33534;51.028;13.716;2023-04-03T03:29:30;8.80;;;2.08;;
47772;SDS011;33534;51.028;13.716;2023-04-03T03:31:56;6.05;;;1.80;;
47772;SDS011;33534;51.028;13.716;2023-04-03T03:34:22;3.95;;;1.67;;
47772;SDS011;33534;51.028;13.716;2023-04-03T03:36:48;4.40;;;1.60;;
47772;SDS011;33534;51.028;13.716;2023-04-03T03:39:14;4.57;;;1.85;;
47772;SDS011;33534;51.028;13.716;2023-04-03T03:41:40;5.38;;;1.90;;
47772;SDS011;33534;51.028;13.716;2023-04-03T03:44:06;5.82;;;2.15;;
47772;SDS011;33534;51.028;13.716;2023-04-03T03:46:32;10.13;;;2.53;;
47772;SDS011;33534;51.028;13.716;2023-04-03T03:48:58;6.47;;;1.83;;
47772;SDS011;33534;51.028;13.716;2023-04-03T03:51:24;8.27;;;2.05;;
47772;SDS011;33534;51.028;13.716;2023-04-03T03:53:50;4.80;;;1.75;;
47772;SDS011;33534;51.028;13.716;2023-04-03T03:56:16;7.32;;;1.92;;
47772;SDS011;33534;51.028;13.716;2023-04-03T03:58:42;6.82;;;1.92;;
47772;SDS011;33534;51.028;13.716;2023-04-03T04:01:09;6.47;;;2.20;;
47772;SDS011;33534;51.028;13.716;2023-04-03T04:03:35;10.07;;;2.05;;
47772;SDS011;33534;51.028;13.716;2023-04-03T04:06:01;5.80;;;2.20;;
47772;SDS011;33534;51.028;13.716;2023-04-03T04:08:28;7.95;;;2.13;;
47772;SDS011;33534;51.028;13.716;2023-04-03T04:10:54;6.53;;;2.25;;
47772;SDS011;33534;51.028;13.716;2023-04-03T04:13:20;9.45;;;2.50;;
47772;SDS011;33534;51.028;13.716;2023-04-03T04:15:46;6.28;;;2.15;;
47772;SDS011;33534;51.028;13.716;2023-04-03T04:18:12;7.13;;;2.10;;
47772;SDS011;33534;51.028;13.716;2023-04-03T04:20:38;5.20;;;2.13;;
47772;SDS011;33534;51.028;13.716;2023-04-03T04:23:04;6.90;;;2.78;;
47772;SDS011;33534;51.028;13.716;2023-04-03T04:25:30;5.75;;;2.22;;
47772;SDS011;33534;51.028;13.716;2023-04-03T04:27:57;6.00;;;1.98;;
47772;SDS011;33534;51.028;13.716;2023-04-03T04:30:23;6.47;;;2.78;;
47772;SDS011;33534;51.028;13.716;2023-04-03T04:32:49;7.63;;;2.35;;
47772;SDS011;33534;51.028;13.716;2023-04-03T04:35:15;8.75;;;1.95;;
47772;SDS011;33534;51.028;13.716;2023-04-03T04:37:41;5.88;;;1.77;;
47772;SDS011;33534;51.028;13.716;2023-04-03T04:40:07;3.90;;;2.03;;
47772;SDS011;33534;51.028;13.716;2023-04-03T04:42:33;9.85;;;3.05;;
47772;SDS011;33534;51.028;13.716;2023-04-03T04:45:00;8.35;;;2.97;;
47772;SDS011;33534;51.028;13.716;2023-04-03T04:47:27;7.75;;;1.92;;
47772;SDS011;33534;51.028;13.716;2023-04-03T04:49:54;8.68;;;2.67;;
47772;SDS011;33534;51.028;13.716;2023-04-03T04:52:20;9.52;;;2.70;;
47772;SDS011;33534;51.028;13.716;2023-04-03T04:54:46;8.00;;;2.80;;
47772;SDS011;33534;51.028;13.716;2023-04-03T04:57:12;7.70;;;2.92;;
47772;SDS011;33534;51.028;13.716;2023-04-03T04:59:38;8.38;;;1.73;;
47772;SDS011;33534;51.028;13.716;2023-04-03T05:02:04;8.00;;;2.83;;
47772;SDS011;33534;51.028;13.716;2023-04-03T05:04:30;5.55;;;2.08;;
47772;SDS011;33534;51.028;13.716;2023-04-03T05:06:56;7.47;;;2.47;;
47772;SDS011;33534;51.028;13.716;2023-04-03T05:09:24;6.53;;;2.58;;
47772;SDS011;33534;51.028;13.716;2023-04-03T05:11:50;8.98;;;2.78;;
47772;SDS011;33534;51.028;13.716;2023-04-03T05:14:16;5.90;;;1.80;;
47772;SDS011;33534;51.028;13.716;2023-04-03T05:16:42;8.00;;;2.58;;
47772;SDS011;33534;51.028;13.716;2023-04-03T05:19:08;7.35;;;2.10;;
47772;SDS011;33534;51.028;13.716;2023-04-03T05:21:34;4.32;;;1.80;;
47772;SDS011;33534;51.028;13.716;2023-04-03T05:24:01;4.90;;;1.88;;
47772;SDS011;33534;51.028;13.716;2023-04-03T05:26:28;4.50;;;2.55;;
47772;SDS011;33534;51.028;13.716;2023-04-03T05:28:54;6.68;;;2.03;;
47772;SDS011;33534;51.028;13.716;2023-04-03T05:31:20;4.10;;;1.95;;
47772;SDS011;33534;51.028;13.716;2023-04-03T05:33:47;10.18;;;2.38;;
47772;SDS011;33534;51.028;13.716;2023-04-03T05:36:25;8.70;;;2.70;;
47772;SDS011;33534;51.028;13.716;2023-04-03T05:38:51;10.30;;;3.50;;
47772;SDS011;33534;51.028;13.716;2023-04-03T05:41:18;12.15;;;2.70;;
47772;SDS011;33534;51.028;13.716;2023-04-03T05:43:45;9.20;;;2.97;;
47772;SDS011;33534;51.028;13.716;2023-04-03T05:46:12;9.52;;;3.72;;
47772;SDS011;33534;51.028;13.716;2023-04-03T05:48:38;10.70;;;4.65;;
47772;SDS011;33534;51.028;13.716;2023-04-03T05:51:05;8.75;;;3.10;;
47772;SDS011;33534;51.028;13.716;2023-04-03T05:53:32;6.47;;;2.63;;
47772;SDS011;33534;51.028;13.716;2023-04-03T05:55:59;10.18;;;2.50;;
47772;SDS011;33534;51.028;13.716;2023-04-03T05:58:25;10.00;;;3.10;;
47772;SDS011;33534;51.028;13.716;2023-04-03T06:00:51;11.30;;;2.92;;
47772;SDS011;33534;51.028;13.716;2023-04-03T06:03:17;8.85;;;2.75;;
47772;SDS011;33534;51.028;13.716;2023-04-03T06:05:43;6.65;;;2.45;;
47772;SDS011;33534;51.028;13.716;2023-04-03T06:08:11;9.85;;;2.70;;
47772;SDS011;33534;51.028;13.716;2023-04-03T06:10:37;7.80;;;2.42;;
47772;SDS011;33534;51.028;13.716;2023-04-03T06:13:03;10.38;;;2.72;;
47772;SDS011;33534;51.028;13.716;2023-04-03T06:15:29;7.60;;;2.63;;
47772;SDS011;33534;51.028;13.716;2023-04-03T06:17:55;6.85;;;2.70;;
47772;SDS011;33534;51.028;13.716;2023-04-03T06:20:21;12.82;;;3.00;;
47772;SDS011;33534;51.028;13.716;2023-04-03T06:22:48;6.95;;;2.50;;
47772;SDS011;33534;51.028;13.716;2023-04-03T06:25:14;7.00;;;3.55;;
47772;SDS011;33534;51.028;13.716;2023-04-03T06:27:42;8.45;;;3.38;;
47772;SDS011;33534;51.028;13.716;2023-04-03T06:30:08;8.90;;;3.28;;
47772;SDS011;33534;51.028;13.716;2023-04-03T06:32:34;8.95;;;2.50;;
47772;SDS011;33534;51.028;13.716;2023-04-03T06:35:00;7.20;;;2.47;;
47772;SDS011;33534;51.028;13.716;2023-04-03T06:37:26;10.43;;;3.15;;
47772;SDS011;33534;51.028;13.716;2023-04-03T06:39:55;5.65;;;2.22;;
47772;SDS011;33534;51.028;13.716;2023-04-03T06:42:21;8.63;;;2.50;;
47772;SDS011;33534;51.028;13.716;2023-04-03T06:44:47;12.35;;;3.20;;
47772;SDS011;33534;51.028;13.716;2023-04-03T06:47:14;7.75;;;2.75;;
47772;SDS011;33534;51.028;13.716;2023-04-03T06:49:40;7.18;;;3.22;;
47772;SDS011;33534;51.028;13.716;2023-04-03T06:52:07;7.18;;;2.67;;
47772;SDS011;33534;51.028;13.716;2023-04-03T06:54:33;9.23;;;2.85;;
47772;SDS011;33534;51.028;13.716;2023-04-03T06:57:00;8.23;;;3.05;;
47772;SDS011;33534;51.028;13.716;2023-04-03T06:59:26;5.25;;;2.45;;
47772;SDS011;33534;51.028;13.716;2023-04-03T07:01:52;7.68;;;2.72;;
47772;SDS011;33534;51.028;13.716;2023-04-03T07:04:18;10.35;;;3.25;;
47772;SDS011;33534;51.028;13.716;2023-04-03T07:06:45;8.88;;;2.78;;
47772;SDS011;33534;51.028;13.716;2023-04-03T07:09:12;12.05;;;3.17;;
47772;SDS011;33534;51.028;13.716;2023-04-03T07:11:38;14.32;;;2.80;;
47772;SDS011;33534;51.028;13.716;2023-04-03T07:14:04;8.45;;;2.65;;
47772;SDS011;33534;51.028;13.716;2023-04-03T07:16:31;8.32;;;2.35;;
47772;SDS011;33534;51.028;13.716;2023-04-03T07:18:57;7.15;;;2.67;;
47772;SDS011;33534;51.028;13.716;2023-04-03T07:21:23;8.80;;;2.00;;
47772;SDS011;33534;51.028;13.716;2023-04-03T07:23:49;11.50;;;2.72;;
47772;SDS011;33534;51.028;13.716;2023-04-03T07:26:15;9.90;;;3.10;;
47772;SDS011;33534;51.028;13.716;2023-04-03T07:28:41;8.30;;;2.67;;
47772;SDS011;33534;51.028;13.716;2023-04-03T07:31:12;9.85;;;2.70;;
47772;SDS011;33534;51.028;13.716;2023-04-03T07:33:41;6.72;;;2.38;;
47772;SDS011;33534;51.028;13.716;2023-04-03T07:36:08;9.80;;;3.88;;
47772;SDS011;33534;51.028;13.716;2023-04-03T07:38:34;6.05;;;2.25;;
47772;SDS011;33534;51.028;13.716;2023-04-03T07:41:01;9.90;;;2.88;;
47772;SDS011;33534;51.028;13.716;2023-04-03T07:43:27;5.68;;;1.98;;
47772;SDS011;33534;51.028;13.716;2023-04-03T07:45:53;7.35;;;2.72;;
47772;SDS011;33534;51.028;13.716;2023-04-03T07:48:20;4.47;;;2.38;;
47772;SDS011;33534;51.028;13.716;2023-04-03T07:50:46;8.30;;;2.08;;
47772;SDS011;33534;51.028;13.716;2023-04-03T07:53:12;6.60;;;2.40;;
47772;SDS011;33534;51.028;13.716;2023-04-03T07:55:39;5.40;;;2.13;;
47772;SDS011;33534;51.028;13.716;2023-04-03T07:58:11;12.85;;;2.72;;
47772;SDS011;33534;51.028;13.716;2023-04-03T08:00:37;7.28;;;2.47;;
47772;SDS011;33534;51.028;13.716;2023-04-03T08:03:04;7.05;;;2.80;;
47772;SDS011;33534;51.028;13.716;2023-04-03T08:05:30;9.20;;;2.25;;
47772;SDS011;33534;51.028;13.716;2023-04-03T08:07:56;4.78;;;2.05;;
47772;SDS011;33534;51.028;13.716;2023-04-03T08:10:23;4.80;;;2.50;;
47772;SDS011;33534;51.028;13.716;2023-04-03T08:12:49;9.88;;;2.70;;
47772;SDS011;33534;51.028;13.716;2023-04-03T08:15:16;9.23;;;2.33;;
47772;SDS011;33534;51.028;13.716;2023-04-03T08:17:42;6.55;;;2.70;;
47772;SDS011;33534;51.028;13.716;2023-04-03T08:20:09;6.07;;;2.10;;
47772;SDS011;33534;51.028;13.716;2023-04-03T08:22:35;8.40;;;2.40;;
47772;SDS011;33534;51.028;13.716;2023-04-03T08:25:01;4.78;;;2.10;;
47772;SDS011;33534;51.028;13.716;2023-04-03T08:27:27;7.35;;;2.80;;
47772;SDS011;33534;51.028;13.716;2023-04-03T08:29:54;12.20;;;2.70;;
47772;SDS011;33534;51.028;13.716;2023-04-03T08:32:20;7.25;;;2.05;;
47772;SDS011;33534;51.028;13.716;2023-04-03T08:34:47;13.18;;;2.58;;
47772;SDS011;33534;51.028;13.716;2023-04-03T08:37:13;4.60;;;2.00;;
47772;SDS011;33534;51.028;13.716;2023-04-03T08:39:41;5.15;;;1.60;;
47772;SDS011;33534;51.028;13.716;2023-04-03T08:42:13;6.07;;;2.00;;
47772;SDS011;33534;51.028;13.716;2023-04-03T08:44:47;7.55;;;2.35;;
47772;SDS011;33534;51.028;13.716;2023-04-03T08:47:39;6.45;;;2.53;;
47772;SDS011;33534;51.028;13.716;2023-04-03T08:50:14;11.23;;;2.47;;
47772;SDS011;33534;51.028;13.716;2023-04-03T08:52:42;5.57;;;2.05;;
47772;SDS011;33534;51.028;13.716;2023-04-03T08:57:40;6.68;;;2.55;;
47772;SDS011;33534;51.028;13.716;2023-04-03T09:02:54;7.47;;;2.20;;
47772;SDS011;33534;51.028;13.716;2023-04-03T09:05:29;7.10;;;1.77;;
47772;SDS011;33534;51.028;13.716;2023-04-03T09:08:00;8.00;;;2.97;;
47772;SDS011;33534;51.028;13.716;2023-04-03T09:10:27;6.43;;;2.75;;
47772;SDS011;33534;51.028;13.716;2023-04-03T09:15:32;7.75;;;2.17;;
47772;SDS011;33534;51.028;13.716;2023-04-03T09:18:21;10.55;;;2.75;;
47772;SDS011;33534;51.028;13.716;2023-04-03T09:20:54;9.03;;;2.43;;
47772;SDS011;33534;51.028;13.716;2023-04-03T09:23:36;8.52;;;1.95;;
47772;SDS011;33534;51.028;13.716;2023-04-03T09:26:13;7.10;;;2.35;;
47772;SDS011;33534;51.028;13.716;2023-04-03T09:28:40;6.10;;;1.95;;
47772;SDS011;33534;51.028;13.716;2023-04-03T09:31:18;5.63;;;1.63;;
47772;SDS011;33534;51.028;13.716;2023-04-03T09:33:45;4.47;;;1.80;;
47772;SDS011;33534;51.028;13.716;2023-04-03T09:36:12;4.25;;;1.55;;
47772;SDS011;33534;51.028;13.716;2023-04-03T09:38:38;11.32;;;2.30;;
47772;SDS011;33534;51.028;13.716;2023-04-03T09:41:05;6.68;;;2.22;;
47772;SDS011;33534;51.028;13.716;2023-04-03T09:43:33;7.80;;;1.75;;
47772;SDS011;33534;51.028;13.716;2023-04-03T09:48:50;6.82;;;1.98;;
47772;SDS011;33534;51.028;13.716;2023-04-03T09:51:17;4.65;;;2.17;;
47772;SDS011;33534;51.028;13.716;2023-04-03T09:53:43;4.18;;;1.88;;
47772;SDS011;33534;51.028;13.716;2023-04-03T09:58:42;5.75;;;1.90;;
47772;SDS011;33534;51.028;13.716;2023-04-03T10:01:26;3.63;;;1.48;;
47772;SDS011;33534;51.028;13.716;2023-04-03T10:04:03;3.58;;;1.30;;
47772;SDS011;33534;51.028;13.716;2023-04-03T10:06:32;5.18;;;1.83;;
47772;SDS011;33534;51.028;13.716;2023-04-03T10:08:59;5.15;;;1.45;;
47772;SDS011;33534;51.028;13.716;2023-04-03T10:11:26;2.85;;;1.25;;
47772;SDS011;33534;51.028;13.716;2023-04-03T10:13:53;6.10;;;1.70;;
47772;SDS011;33534;51.028;13.716;2023-04-03T10:16:22;3.78;;;1.15;;
47772;SDS011;33534;51.028;13.716;2023-04-03T10:31:46;6.60;;;2.60;;
47772;SDS011;33534;51.028;13.716;2023-04-03T10:34:21;8.45;;;2.13;;
47772;SDS011;33534;51.028;13.716;2023-04-03T10:36:56;9.20;;;1.88;;
47772;SDS011;33534;51.028;13.716;2023-04-03T10:39:33;4.32;;;1.63;;
47772;SDS011;33534;51.028;13.716;2023-04-03T10:53:03;6.63;;;1.17;;
47772;SDS011;33534;51.028;13.716;2023-04-03T10:57:58;3.90;;;1.25;;
47772;SDS011;33534;51.028;13.716;2023-04-03T11:00:36;4.10;;;1.30;;
47772;SDS011;33534;51.028;13.716;2023-04-03T11:03:38;5.38;;;1.20;;
47772;SDS011;33534;51.028;13.716;2023-04-03T11:05:56;3.95;;;1.05;;
47772;SDS011;33534;51.028;13.716;2023-04-03T11:11:15;5.68;;;1.85;;
47772;SDS011;33534;51.028;13.716;2023-04-03T11:16:19;12.90;;;2.13;;
47772;SDS011;33534;51.028;13.716;2023-04-03T11:19:03;4.90;;;1.20;;
47772;SDS011;33534;51.028;13.716;2023-04-03T11:21:38;4.18;;;1.00;;
47772;SDS011;33534;51.028;13.716;2023-04-03T11:24:06;4.10;;;1.23;;
47772;SDS011;33534;51.028;13.716;2023-04-03T11:29:04;3.47;;;0.93;;
47772;SDS011;33534;51.028;13.716;2023-04-03T11:36:46;5.53;;;1.10;;
47772;SDS011;33534;51.028;13.716;2023-04-03T11:39:35;3.42;;;1.00;;
47772;SDS011;33534;51.028;13.716;2023-04-03T11:44:45;2.55;;;0.95;;
47772;SDS011;33534;51.028;13.716;2023-04-03T11:47:11;5.38;;;1.27;;
47772;SDS011;33534;51.028;13.716;2023-04-03T11:49:58;5.97;;;1.27;;
47772;SDS011;33534;51.028;13.716;2023-04-03T12:16:05;3.95;;;0.88;;
47772;SDS011;33534;51.028;13.716;2023-04-03T12:18:40;8.88;;;1.55;;
47772;SDS011;33534;51.028;13.716;2023-04-03T12:21:07;4.85;;;1.85;;
47772;SDS011;33534;51.028;13.716;2023-04-03T12:23:33;9.25;;;1.38;;
47772;SDS011;33534;51.028;13.716;2023-04-03T12:26:22;8.23;;;1.77;;
47772;SDS011;33534;51.028;13.716;2023-04-03T12:28:47;4.68;;;1.13;;
47772;SDS011;33534;51.028;13.716;2023-04-03T12:31:13;1.48;;;1.05;;
47772;SDS011;33534;51.028;13.716;2023-04-03T12:36:30;3.20;;;1.20;;
47772;SDS011;33534;51.028;13.716;2023-04-03T12:41:52;4.35;;;1.25;;
47772;SDS011;33534;51.028;13.716;2023-04-03T12:44:25;4.80;;;1.40;;
47772;SDS011;33534;51.028;13.716;2023-04-03T12:46:57;3.78;;;1.23;;
47772;SDS011;33534;51.028;13.716;2023-04-03T12:51:54;6.43;;;1.48;;
47772;SDS011;33534;51.028;13.716;2023-04-03T12:56:46;2.53;;;1.15;;
47772;SDS011;33534;51.028;13.716;2023-04-03T12:59:18;4.85;;;1.10;;
47772;SDS011;33534;51.028;13.716;2023-04-03T13:01:44;3.83;;;1.20;;
47772;SDS011;33534;51.028;13.716;2023-04-03T13:04:18;2.78;;;1.10;;
47772;SDS011;33534;51.028;13.716;2023-04-03T13:06:44;3.92;;;1.23;;
47772;SDS011;33534;51.028;13.716;2023-04-03T13:11:46;6.22;;;1.48;;
47772;SDS011;33534;51.028;13.716;2023-04-03T13:14:21;3.38;;;1.23;;
47772;SDS011;33534;51.028;13.716;2023-04-03T13:17:03;4.75;;;1.30;;
47772;SDS011;33534;51.028;13.716;2023-04-03T13:19:29;8.10;;;2.22;;
47772;SDS011;33534;51.028;13.716;2023-04-03T13:22:06;2.83;;;1.67;;
47772;SDS011;33534;51.028;13.716;2023-04-03T13:24:33;4.65;;;1.35;;
47772;SDS011;33534;51.028;13.716;2023-04-03T13:27:00;6.75;;;1.70;;
47772;SDS011;33534;51.028;13.716;2023-04-03T13:29:28;4.20;;;1.52;;
47772;SDS011;33534;51.028;13.716;2023-04-03T13:31:55;4.03;;;1.55;;
47772;SDS011;33534;51.028;13.716;2023-04-03T13:34:22;3.53;;;1.40;;
47772;SDS011;33534;51.028;13.716;2023-04-03T13:36:59;5.80;;;1.50;;
47772;SDS011;33534;51.028;13.716;2023-04-03T13:39:27;5.90;;;0.93;;
47772;SDS011;33534;51.028;13.716;2023-04-03T13:41:55;3.25;;;1.40;;
47772;SDS011;33534;51.028;13.716;2023-04-03T13:46:55;5.30;;;1.52;;
47772;SDS011;33534;51.028;13.716;2023-04-03T13:51:48;4.10;;;1.30;;
47772;SDS011;33534;51.028;13.716;2023-04-03T13:54:29;3.90;;;1.95;;
47772;SDS011;33534;51.028;13.716;2023-04-03T13:56:57;3.58;;;1.70;;
47772;SDS011;33534;51.028;13.716;2023-04-03T13:59:24;3.97;;;1.23;;
47772;SDS011;33534;51.028;13.716;2023-04-03T14:04:29;2.95;;;1.38;;
47772;SDS011;33534;51.028;13.716;2023-04-03T14:06:56;4.13;;;1.20;;
47772;SDS011;33534;51.028;13.716;2023-04-03T14:09:24;4.45;;;1.00;;
47772;SDS011;33534;51.028;13.716;2023-04-03T14:11:53;5.55;;;1.92;;
47772;SDS011;33534;51.028;13.716;2023-04-03T14:14:22;4.63;;;1.67;;
47772;SDS011;33534;51.028;13.716;2023-04-03T14:16:53;4.32;;;1.13;;
47772;SDS011;33534;51.028;13.716;2023-04-03T14:19:40;7.37;;;1.63;;
47772;SDS011;33534;51.028;13.716;2023-04-03T14:22:16;2.67;;;1.50;;
47772;SDS011;33534;51.028;13.716;2023-04-03T14:24:42;6.22;;;1.52;;
47772;SDS011;33534;51.028;13.716;2023-04-03T14:27:20;4.95;;;1.38;;
47772;SDS011;33534;51.028;13.716;2023-04-03T14:29:46;3.92;;;1.50;;
47772;SDS011;33534;51.028;13.716;2023-04-03T14:32:13;3.83;;;1.33;;
47772;SDS011;33534;51.028;13.716;2023-04-03T14:34:40;3.95;;;1.58;;
47772;SDS011;33534;51.028;13.716;2023-04-03T14:37:15;3.90;;;1.48;;
47772;SDS011;33534;51.028;13.716;2023-04-03T14:39:42;6.45;;;1.48;;
47772;SDS011;33534;51.028;13.716;2023-04-03T14:42:13;1.98;;;1.20;;
47772;SDS011;33534;51.028;13.716;2023-04-03T14:44:39;2.78;;;1.48;;
47772;SDS011;33534;51.028;13.716;2023-04-03T14:47:08;3.90;;;1.38;;
47772;SDS011;33534;51.028;13.716;2023-04-03T14:49:34;6.38;;;1.58;;
47772;SDS011;33534;51.028;13.716;2023-04-03T14:52:00;7.57;;;1.85;;
47772;SDS011;33534;51.028;13.716;2023-04-03T14:54:27;4.20;;;1.92;;
47772;SDS011;33534;51.028;13.716;2023-04-03T14:56:54;5.43;;;1.60;;
47772;SDS011;33534;51.028;13.716;2023-04-03T14:59:21;2.83;;;1.40;;
47772;SDS011;33534;51.028;13.716;2023-04-03T15:01:47;5.72;;;2.03;;
47772;SDS011;33534;51.028;13.716;2023-04-03T15:04:14;6.13;;;1.60;;
47772;SDS011;33534;51.028;13.716;2023-04-03T15:06:40;7.93;;;1.45;;
47772;SDS011;33534;51.028;13.716;2023-04-03T15:09:11;2.35;;;1.10;;
47772;SDS011;33534;51.028;13.716;2023-04-03T15:11:44;3.53;;;0.98;;
47772;SDS011;33534;51.028;13.716;2023-04-03T15:14:18;6.25;;;1.63;;
47772;SDS011;33534;51.028;13.716;2023-04-03T15:17:02;2.25;;;1.10;;
47772;SDS011;33534;51.028;13.716;2023-04-03T15:19:32;5.80;;;1.40;;
47772;SDS011;33534;51.028;13.716;2023-04-03T15:22:01;4.65;;;1.83;;
47772;SDS011;33534;51.028;13.716;2023-04-03T15:24:27;2.35;;;0.77;;
47772;SDS011;33534;51.028;13.716;2023-04-03T15:26:53;4.30;;;1.15;;
47772;SDS011;33534;51.028;13.716;2023-04-03T15:29:20;3.72;;;1.23;;
47772;SDS011;33534;51.028;13.716;2023-04-03T15:31:46;1.80;;;1.23;;
47772;SDS011;33534;51.028;13.716;2023-04-03T15:34:14;4.80;;;1.20;;
47772;SDS011;33534;51.028;13.716;2023-04-03T15:36:41;4.25;;;1.20;;
47772;SDS011;33534;51.028;13.716;2023-04-03T15:39:07;3.63;;;1.70;;
47772;SDS011;33534;51.028;13.716;2023-04-03T15:41:33;4.20;;;1.35;;
47772;SDS011;33534;51.028;13.716;2023-04-03T15:43:59;5.75;;;1.15;;
47772;SDS011;33534;51.028;13.716;2023-04-03T15:46:25;4.32;;;1.77;;
47772;SDS011;33534;51.028;13.716;2023-04-03T15:48:51;5.93;;;2.03;;
47772;SDS011;33534;51.028;13.716;2023-04-03T15:51:17;6.63;;;3.65;;
47772;SDS011;33534;51.028;13.716;2023-04-03T15:53:43;7.18;;;3.03;;
47772;SDS011;33534;51.028;13.716;2023-04-03T15:56:09;3.78;;;2.22;;
47772;SDS011;33534;51.028;13.716;2023-04-03T15:58:36;5.35;;;1.95;;
47772;SDS011;33534;51.028;13.716;2023-04-03T16:01:03;5.95;;;2.55;;
47772;SDS011;33534;51.028;13.716;2023-04-03T16:03:29;5.25;;;2.15;;
47772;SDS011;33534;51.028;13.716;2023-04-03T16:05:55;4.20;;;2.47;;
47772;SDS011;33534;51.028;13.716;2023-04-03T16:08:21;4.50;;;1.63;;
47772;SDS011;33534;51.028;13.716;2023-04-03T16:10:48;2.55;;;0.85;;
47772;SDS011;33534;51.028;13.716;2023-04-03T16:13:14;5.78;;;1.90;;
47772;SDS011;33534;51.028;13.716;2023-04-03T16:15:40;2.63;;;1.30;;
47772;SDS011;33534;51.028;13.716;2023-04-03T16:18:07;5.18;;;2.10;;
47772;SDS011;33534;51.028;13.716;2023-04-03T16:20:34;2.42;;;1.20;;
47772;SDS011;33534;51.028;13.716;2023-04-03T16:23:00;2.80;;;1.60;;
47772;SDS011;33534;51.028;13.716;2023-04-03T16:25:26;6.57;;;1.13;;
47772;SDS011;33534;51.028;13.716;2023-04-03T16:27:52;2.65;;;1.38;;